Time;durP1;ratioP1;P1;durP2;ratioP2;P2;SDS_P1;SDS_P2;PMS_P1;PMS_P2;Temp;Humidity;BMP_temperature;BMP_pressure;BME280_temperature;BME280_humidity;BME280_pressure;Samples;Min_cycle;Max_cycle;Signal;HPM_P1;HPM_P2
2023/08/08 00:01:17;;;;;;;0.20;0.20;;;;;;;21.88;62.10;98963.84;5036417;28;20068;-76
2023/08/08 00:03:43;;;;;;;0.20;0.20;;;;;;;21.86;61.89;98960.66;5071029;28;20047;-73
2023/08/08 00:06:10;;;;;;;0.20;0.20;;;;;;;21.84;61.94;98957.41;5052775;28;20044;-73
2023/08/08 00:08:36;;;;;;;0.20;0.20;;;;;;;21.84;61.39;98962.19;5059891;28;20057;-75
2023/08/08 00:11:06;;;;;;;0.20;0.20;;;;;;;21.82;61.44;98951.41;5047117;28;20049;-75
2023/08/08 00:13:34;;;;;;;0.10;0.10;;;;;;;21.78;61.84;98954.16;5033269;28;20045;-73
2023/08/08 00:16:02;;;;;;;0.20;0.20;;;;;;;21.78;61.94;98950.56;5047767;28;20064;-74
2023/08/08 00:18:28;;;;;;;0.20;0.20;;;;;;;21.75;62.14;98951.31;5053163;28;20250;-75
2023/08/08 00:20:55;;;;;;;0.20;0.20;;;;;;;21.75;62.36;98942.97;5052337;28;20275;-74
2023/08/08 00:23:21;;;;;;;0.20;0.20;;;;;;;21.73;62.28;98959.22;5066004;28;20040;-73
2023/08/08 00:25:49;;;;;;;0.20;0.20;;;;;;;21.71;62.18;98947.66;5069229;28;20067;-74
2023/08/08 00:28:16;;;;;;;0.20;0.20;;;;;;;21.62;62.10;98932.00;5062277;28;20052;-74
2023/08/08 00:30:44;;;;;;;;;;;;;;;21.62;62.04;98929.22;5032890;28;20287;-74
2023/08/08 00:33:11;;;;;;;0.20;0.20;;;;;;;21.61;62.58;98946.25;5047754;28;19970;-73
2023/08/08 00:35:37;;;;;;;0.20;0.20;;;;;;;21.52;62.18;98938.16;5041526;28;20331;-74
2023/08/08 00:38:04;;;;;;;0.20;0.20;;;;;;;21.50;62.23;98935.75;5065528;28;20080;-75
2023/08/08 00:40:30;;;;;;;0.20;0.20;;;;;;;21.44;63.21;98931.66;5068238;28;20409;-74
2023/08/08 00:42:57;;;;;;;0.17;0.17;;;;;;;21.45;63.73;98935.25;5069988;28;20044;-75
2023/08/08 00:45:24;;;;;;;0.20;0.20;;;;;;;21.44;63.67;98931.66;5068404;28;20085;-74
2023/08/08 00:47:52;;;;;;;0.10;0.10;;;;;;;21.45;63.74;98929.69;5050169;28;20099;-74
2023/08/08 00:50:19;;;;;;;0.20;0.20;;;;;;;21.42;63.75;98920.09;5048656;28;20057;-73
2023/08/08 00:52:47;;;;;;;0.20;0.20;;;;;;;21.33;63.84;98909.22;5034515;28;20486;-73
2023/08/08 00:55:14;;;;;;;0.20;0.20;;;;;;;21.45;63.76;98918.56;5016733;28;20045;-74
2023/08/08 00:57:40;;;;;;;;;;;;;;;21.47;63.93;98921.78;5053120;28;20072;-74
2023/08/08 01:00:11;;;;;;;0.20;0.20;;;;;;;21.39;63.71;98916.13;5032495;28;19929;-74
2023/08/08 01:02:38;;;;;;;0.20;0.20;;;;;;;21.42;63.92;98927.66;5048596;28;20052;-73
2023/08/08 01:05:07;;;;;;;0.20;0.20;;;;;;;21.39;64.08;98918.06;5046477;28;20048;-74
2023/08/08 01:07:43;;;;;;;0.20;0.20;;;;;;;21.37;64.05;98900.97;5066257;28;20102;-73
2023/08/08 01:10:12;;;;;;;0.20;0.20;;;;;;;21.34;63.58;98885.81;5066333;28;20511;-72
2023/08/08 01:12:42;;;;;;;0.20;0.20;;;;;;;21.37;63.13;98876.72;5034612;28;20052;-73
2023/08/08 01:15:11;;;;;;;0.20;0.20;;;;;;;21.33;63.69;98863.97;5056734;28;20049;-74
2023/08/08 01:17:39;;;;;;;0.20;0.20;;;;;;;21.26;63.97;98872.97;5067160;28;20044;-74
2023/08/08 01:20:08;;;;;;;0.20;0.20;;;;;;;21.24;63.99;98878.13;5068527;28;20967;-74
2023/08/08 01:22:41;;;;;;;0.20;0.20;;;;;;;21.24;64.20;98873.34;5049838;28;20079;-73
2023/08/08 01:25:10;;;;;;;0.20;0.20;;;;;;;21.29;63.76;98882.53;5048607;28;20495;-74
2023/08/08 01:27:38;;;;;;;0.20;0.20;;;;;;;21.28;63.75;98892.06;5020188;28;20045;-74
2023/08/08 01:30:07;;;;;;;0.52;0.20;;;;;;;21.28;63.09;98901.22;5046806;28;20074;-73
2023/08/08 01:32:34;;;;;;;0.20;0.20;;;;;;;21.22;63.23;98889.59;5031821;28;20095;-73
2023/08/08 01:35:01;;;;;;;0.20;0.20;;;;;;;21.28;62.67;98881.75;5034845;28;20045;-74
2023/08/08 01:37:35;;;;;;;0.20;0.20;;;;;;;21.30;62.54;98889.69;5051446;28;20048;-74
2023/08/08 01:40:04;;;;;;;0.20;0.20;;;;;;;21.28;62.27;98878.97;5014841;28;20446;-73
2023/08/08 01:42:33;;;;;;;0.20;0.20;;;;;;;21.28;62.48;98865.06;5042230;28;20048;-75
2023/08/08 01:45:00;;;;;;;0.20;0.20;;;;;;;21.29;62.32;98875.03;5066725;28;20048;-75
2023/08/08 01:47:31;;;;;;;0.20;0.20;;;;;;;21.27;62.34;98874.59;5032157;28;20045;-74
2023/08/08 01:49:57;;;;;;;0.20;0.20;;;;;;;21.24;62.83;98867.00;5024899;28;20522;-74
2023/08/08 01:52:24;;;;;;;0.20;0.20;;;;;;;21.22;62.97;98872.09;5009432;28;20125;-74
2023/08/08 01:54:50;;;;;;;0.20;0.20;;;;;;;21.23;63.16;98874.53;5048250;28;20119;-73
2023/08/08 01:57:17;;;;;;;0.20;0.20;;;;;;;21.21;63.52;98876.88;5029682;28;20818;-74
2023/08/08 01:59:46;;;;;;;0.20;0.20;;;;;;;21.19;63.04;98865.31;5012094;28;20045;-74
2023/08/08 02:02:15;;;;;;;0.13;0.13;;;;;;;21.17;62.48;98873.22;5029479;28;20049;-74
2023/08/08 02:04:41;;;;;;;0.20;0.20;;;;;;;21.20;62.66;98874.44;5049772;28;20044;-73
2023/08/08 02:07:08;;;;;;;0.20;0.20;;;;;;;21.21;62.73;98871.31;5032148;28;20067;-74
2023/08/08 02:09:34;;;;;;;0.20;0.20;;;;;;;21.19;62.48;98867.28;5048179;28;20044;-74
2023/08/08 02:12:01;;;;;;;;;;;;;;;21.24;62.94;98880.88;5047610;28;20071;-73
2023/08/08 02:14:27;;;;;;;0.20;0.20;;;;;;;21.25;62.10;98877.72;5049575;28;19928;-74
2023/08/08 02:16:55;;;;;;;0.20;0.20;;;;;;;21.25;62.17;98883.28;5014950;28;20051;-75
2023/08/08 02:19:21;;;;;;;0.20;0.20;;;;;;;21.30;62.23;98887.75;5031485;28;20168;-74
2023/08/08 02:21:48;;;;;;;0.20;0.20;;;;;;;21.30;61.66;98890.53;5030308;28;20083;-73
2023/08/08 02:24:18;;;;;;;0.20;0.20;;;;;;;21.35;61.33;98892.19;5053475;28;20048;-72
2023/08/08 02:26:44;;;;;;;0.20;0.20;;;;;;;21.36;60.91;98885.47;5047112;28;20048;-73
2023/08/08 02:29:10;;;;;;;0.20;0.20;;;;;;;21.36;60.98;98889.03;5067439;28;20079;-73
2023/08/08 02:31:36;;;;;;;0.20;0.20;;;;;;;21.37;60.75;98881.50;5030892;28;20490;-73
2023/08/08 02:34:05;;;;;;;0.20;0.20;;;;;;;21.37;60.36;98885.06;5039583;28;20139;-75
2023/08/08 02:36:33;;;;;;;0.20;0.20;;;;;;;21.38;60.24;98877.56;5048030;28;20067;-74
2023/08/08 02:38:59;;;;;;;0.20;0.20;;;;;;;21.37;60.49;98871.19;5048977;28;20052;-74
2023/08/08 02:41:25;;;;;;;0.20;0.20;;;;;;;21.35;60.85;98865.19;5056671;28;20075;-73
2023/08/08 02:43:52;;;;;;;0.20;0.20;;;;;;;21.31;60.43;98869.88;5052381;28;20079;-74
2023/08/08 02:46:19;;;;;;;;;;;;;;;21.27;60.81;98871.81;5054646;28;20151;-74
2023/08/08 02:48:45;;;;;;;0.20;0.20;;;;;;;21.25;60.60;98872.16;5047897;28;20256;-74
2023/08/08 02:51:13;;;;;;;0.20;0.20;;;;;;;21.29;61.03;98882.53;5066533;28;20049;-74
2023/08/08 02:53:39;;;;;;;0.20;0.20;;;;;;;21.33;60.08;98877.88;5031118;28;20048;-75
2023/08/08 02:56:06;;;;;;;0.20;0.20;;;;;;;21.35;60.51;98884.66;5047263;28;20393;-74
2023/08/08 02:58:38;;;;;;;0.20;0.20;;;;;;;21.40;59.49;98883.53;5047550;28;20136;-73
2023/08/08 03:01:04;;;;;;;0.20;0.20;;;;;;;21.45;59.51;98888.78;5061483;28;20041;-75
2023/08/08 03:03:31;;;;;;;0.30;0.30;;;;;;;21.47;59.55;98877.31;5033644;28;20076;-74
2023/08/08 03:05:57;;;;;;;0.20;0.20;;;;;;;21.50;59.68;98882.94;5048540;28;20147;-74
2023/08/08 03:08:27;;;;;;;0.20;0.20;;;;;;;21.50;59.40;98877.38;5019579;28;20230;-72
2023/08/08 03:10:55;;;;;;;0.20;0.20;;;;;;;21.51;59.70;98883.72;5033322;28;20063;-73
2023/08/08 03:13:22;;;;;;;0.20;0.20;;;;;;;21.50;59.82;98888.50;5048132;28;20056;-74
2023/08/08 03:15:49;;;;;;;0.20;0.20;;;;;;;21.50;59.68;98891.28;5063515;28;20131;-74
2023/08/08 03:18:15;;;;;;;0.20;0.20;;;;;;;21.49;59.62;98895.22;5034693;28;20076;-75
2023/08/08 03:20:42;;;;;;;0.20;0.20;;;;;;;21.37;60.14;98889.84;5029440;28;20339;-74
2023/08/08 03:23:09;;;;;;;;;;;;;;;21.42;59.70;98899.88;5029079;28;20057;-73
2023/08/08 03:25:38;;;;;;;0.20;0.20;;;;;;;21.38;59.41;98917.25;5032959;28;20020;-74
2023/08/08 03:28:05;;;;;;;0.20;0.20;;;;;;;21.33;60.42;98898.13;5068639;28;20044;-75
2023/08/08 03:30:31;;;;;;;;;;;;;;;21.27;60.69;98901.56;5057559;28;20049;-75
2023/08/08 03:32:58;;;;;;;0.20;0.20;;;;;;;21.23;60.86;98902.31;5059111;28;19928;-74
2023/08/08 03:35:24;;;;;;;0.20;0.20;;;;;;;21.25;60.73;98902.75;5058808;28;20461;-74
2023/08/08 03:37:51;;;;;;;0.20;0.20;;;;;;;21.33;60.79;98889.00;5064241;28;20060;-74
2023/08/08 03:40:17;;;;;;;0.20;0.20;;;;;;;21.43;60.62;98901.47;5049912;28;20048;-74
2023/08/08 03:42:45;;;;;;;0.25;0.20;;;;;;;21.47;60.03;98894.81;5053695;28;20067;-74
2023/08/08 03:45:11;;;;;;;0.20;0.20;;;;;;;21.49;60.27;98892.44;5054168;28;20544;-73
2023/08/08 03:47:38;;;;;;;0.20;0.20;;;;;;;21.49;60.28;98888.84;5014153;28;20053;-73
2023/08/08 03:50:07;;;;;;;0.20;0.20;;;;;;;21.50;60.42;98898.81;5033895;28;20148;-72
2023/08/08 03:52:35;;;;;;;0.30;0.30;;;;;;;21.54;60.65;98903.25;5031452;28;20045;-74
2023/08/08 03:55:02;;;;;;;0.20;0.20;;;;;;;21.53;60.16;98906.38;5038721;28;20067;-73
2023/08/08 03:57:30;;;;;;;0.20;0.20;;;;;;;21.53;60.03;98910.00;5036498;28;20538;-74
2023/08/08 03:59:58;;;;;;;0.20;0.20;;;;;;;21.58;60.26;98922.78;5054426;28;20110;-74
2023/08/08 04:02:25;;;;;;;0.20;0.20;;;;;;;21.62;60.61;98922.81;5067801;28;20072;-74
2023/08/08 04:04:51;;;;;;;0.20;0.20;;;;;;;21.57;60.58;98917.59;5068474;28;20056;-74
2023/08/08 04:07:18;;;;;;;0.20;0.20;;;;;;;21.64;60.23;98937.97;5053727;28;20052;-72
2023/08/08 04:09:44;;;;;;;0.20;0.20;;;;;;;21.61;59.82;98935.13;5048576;28;20198;-73
2023/08/08 04:12:11;;;;;;;0.20;0.20;;;;;;;21.59;60.22;98935.50;5047865;28;20679;-73
2023/08/08 04:14:38;;;;;;;;;;;;;;;21.60;60.56;98934.34;5048690;28;20053;-75
2023/08/08 04:17:06;;;;;;;0.20;0.20;;;;;;;21.57;60.07;98929.53;5049300;28;20459;-73
2023/08/08 04:19:32;;;;;;;0.20;0.20;;;;;;;21.50;60.63;98932.97;5049536;28;20045;-73
2023/08/08 04:21:58;;;;;;;0.20;0.20;;;;;;;21.52;60.90;98929.81;5049586;28;20111;-74
2023/08/08 04:24:25;;;;;;;0.20;0.20;;;;;;;21.54;60.88;98935.81;5017225;28;20122;-73
2023/08/08 04:26:51;;;;;;;0.20;0.20;;;;;;;21.51;61.75;98931.81;5050832;28;20745;-73
2023/08/08 04:29:17;;;;;;;0.20;0.20;;;;;;;21.46;62.51;98925.75;5049431;28;20037;-73
2023/08/08 04:31:44;;;;;;;0.20;0.20;;;;;;;21.40;63.03;98919.69;5070386;28;20113;-74
2023/08/08 04:34:12;;;;;;;0.25;0.25;;;;;;;21.41;63.19;98932.41;5069161;28;20298;-76
2023/08/08 04:36:39;;;;;;;0.20;0.20;;;;;;;21.40;63.45;98936.38;5066695;28;20090;-75
2023/08/08 04:39:05;;;;;;;0.20;0.20;;;;;;;21.40;62.53;98928.03;5049294;28;20067;-75
2023/08/08 04:41:32;;;;;;;0.20;0.20;;;;;;;21.39;62.96;98926.41;5066633;28;20276;-74
2023/08/08 04:43:58;;;;;;;0.20;0.20;;;;;;;21.44;64.83;98931.66;5051281;28;20047;-73
2023/08/08 04:46:24;;;;;;;0.25;0.25;;;;;;;21.42;64.72;98941.56;5066069;28;20572;-75
2023/08/08 04:48:50;;;;;;;0.20;0.20;;;;;;;21.36;65.20;98938.28;5049893;28;20075;-75
2023/08/08 04:51:19;;;;;;;0.20;0.20;;;;;;;21.29;64.58;98943.69;5042783;28;20530;-73
2023/08/08 04:53:45;;;;;;;0.20;0.20;;;;;;;21.25;65.30;98938.88;5038553;28;20041;-74
2023/08/08 04:56:11;;;;;;;0.20;0.20;;;;;;;21.31;65.31;98939.38;5038400;28;20049;-75
2023/08/08 04:58:38;;;;;;;0.30;0.30;;;;;;;21.35;66.31;98942.25;5029283;28;20547;-75
2023/08/08 05:01:04;;;;;;;0.30;0.30;;;;;;;21.40;66.71;98947.47;5057173;28;20311;-74
2023/08/08 05:03:31;;;;;;;0.30;0.30;;;;;;;21.45;66.46;98943.59;5056123;28;20498;-74
2023/08/08 05:05:58;;;;;;;0.20;0.20;;;;;;;21.51;66.38;98940.16;5061663;28;20174;-73
2023/08/08 05:08:26;;;;;;;0.30;0.30;;;;;;;21.58;65.07;98953.38;5068310;28;20139;-75
2023/08/08 05:10:52;;;;;;;0.30;0.30;;;;;;;21.63;66.18;98947.50;5067283;28;20412;-74
2023/08/08 05:13:19;;;;;;;0.20;0.20;;;;;;;21.66;64.95;98941.22;5067201;28;20131;-74
2023/08/08 05:15:45;;;;;;;0.20;0.20;;;;;;;21.75;64.72;98949.31;5057111;28;20083;-73
2023/08/08 05:18:11;;;;;;;0.20;0.20;;;;;;;21.83;64.97;98955.81;5059826;28;20052;-72
2023/08/08 05:20:38;;;;;;;0.20;0.20;;;;;;;21.88;64.60;98944.38;5048611;28;20045;-73
2023/08/08 05:23:10;;;;;;;0.28;0.28;;;;;;;21.93;64.54;98948.81;5049102;28;20044;-74
2023/08/08 05:25:40;;;;;;;0.20;0.20;;;;;;;21.95;64.65;98940.91;5047135;28;20059;-73
2023/08/08 05:28:06;;;;;;;0.20;0.20;;;;;;;21.96;64.73;98936.94;5034579;28;20512;-74
2023/08/08 05:30:33;;;;;;;0.23;0.23;;;;;;;21.95;64.92;98954.81;5050727;28;20041;-75
2023/08/08 05:32:59;;;;;;;0.20;0.20;;;;;;;21.89;65.08;98936.81;5030889;28;20037;-74
2023/08/08 05:35:25;;;;;;;0.20;0.20;;;;;;;21.91;65.20;98946.41;5042557;28;20048;-73
2023/08/08 05:37:52;;;;;;;0.20;0.20;;;;;;;21.93;64.75;98948.81;5061578;28;20053;-74
2023/08/08 05:40:18;;;;;;;0.30;0.30;;;;;;;22.02;64.74;98954.13;5063184;28;20057;-74
2023/08/08 05:42:47;;;;;;;0.20;0.20;;;;;;;22.10;64.78;98947.50;5046832;28;20643;-74
2023/08/08 05:45:16;;;;;;;0.30;0.30;;;;;;;22.07;64.99;98946.25;5060895;28;20047;-74
2023/08/08 05:47:43;;;;;;;0.30;0.30;;;;;;;21.99;64.37;98950.13;5058565;28;20056;-74
2023/08/08 05:50:09;;;;;;;0.20;0.20;;;;;;;21.91;65.19;98945.59;5041055;28;20063;-74
2023/08/08 05:52:36;;;;;;;0.20;0.20;;;;;;;21.83;65.64;98944.66;5021187;28;20036;-74
2023/08/08 05:55:02;;;;;;;0.20;0.20;;;;;;;21.83;65.89;98955.00;5062189;28;20052;-74
2023/08/08 05:57:29;;;;;;;0.30;0.30;;;;;;;21.86;66.03;98955.09;5053443;28;20427;-74
2023/08/08 05:59:57;;;;;;;0.20;0.20;;;;;;;21.96;66.18;98953.66;5061194;28;20044;-75
2023/08/08 06:02:23;;;;;;;0.30;0.30;;;;;;;22.15;66.02;98957.50;5065058;28;20045;-75
2023/08/08 06:04:50;;;;;;;0.30;0.30;;;;;;;22.42;65.05;98952.75;5062618;28;20604;-75
2023/08/08 06:07:16;;;;;;;0.30;0.30;;;;;;;22.66;64.49;98957.06;5039082;28;20140;-74
2023/08/08 06:09:43;;;;;;;0.30;0.30;;;;;;;22.80;64.14;98955.66;5061600;28;20037;-73
2023/08/08 06:12:09;;;;;;;0.20;0.20;;;;;;;22.91;64.32;98953.00;5055726;28;20044;-74
2023/08/08 06:14:36;;;;;;;0.30;0.30;;;;;;;22.92;64.30;98949.84;5046786;28;20040;-75
2023/08/08 06:17:05;;;;;;;0.30;0.30;;;;;;;22.91;63.33;98953.81;5067745;28;20052;-75
2023/08/08 06:19:31;;;;;;;0.30;0.30;;;;;;;22.85;63.57;98954.53;5030749;28;20522;-74
2023/08/08 06:21:57;;;;;;;0.30;0.30;;;;;;;22.77;63.67;98948.84;5044360;28;20110;-74
2023/08/08 06:24:23;;;;;;;0.30;0.30;;;;;;;22.80;63.67;98953.69;5030337;28;20057;-74
2023/08/08 06:26:50;;;;;;;0.30;0.30;;;;;;;22.87;63.45;98952.97;5033844;28;20080;-73
2023/08/08 06:29:16;;;;;;;0.23;0.23;;;;;;;23.03;62.84;98960.34;5048965;28;20053;-74
2023/08/08 06:31:42;;;;;;;0.20;0.20;;;;;;;23.13;62.37;98959.63;5050552;28;20307;-73
2023/08/08 06:34:10;;;;;;;0.30;0.30;;;;;;;23.22;61.87;98943.44;5029956;28;20140;-74
2023/08/08 06:36:37;;;;;;;0.30;0.30;;;;;;;23.42;61.53;98956.41;5044257;28;20053;-73
2023/08/08 06:39:03;;;;;;;0.30;0.30;;;;;;;23.67;60.67;98961.41;5016845;28;20144;-74
2023/08/08 06:41:29;;;;;;;0.30;0.30;;;;;;;23.81;59.62;98961.56;5051457;28;20052;-73
2023/08/08 06:43:55;;;;;;;0.20;0.20;;;;;;;23.83;59.96;98966.75;5066163;28;20121;-74
2023/08/08 06:46:24;;;;;;;0.30;0.30;;;;;;;23.81;59.92;98961.56;5071164;28;20415;-73
2023/08/08 06:48:52;;;;;;;0.30;0.30;;;;;;;23.79;60.05;98961.91;5067097;28;20063;-75
2023/08/08 06:51:20;;;;;;;0.35;0.35;;;;;;;23.84;59.73;98957.97;5064826;28;20044;-74
2023/08/08 06:53:46;;;;;;;0.40;0.40;;;;;;;24.31;58.80;98965.94;5050317;28;20075;-74
2023/08/08 06:56:12;;;;;;;0.30;0.30;;;;;;;24.75;57.10;98956.63;5066335;28;20056;-74
2023/08/08 06:58:38;;;;;;;0.40;0.40;;;;;;;25.01;55.94;98959.56;5058129;28;20045;-75
2023/08/08 07:01:05;;;;;;;0.40;0.40;;;;;;;25.32;55.12;98969.25;5044926;28;20508;-73
2023/08/08 07:03:31;;;;;;;0.30;0.30;;;;;;;25.87;53.50;98961.75;5049938;28;20059;-73
2023/08/08 07:05:57;;;;;;;0.40;0.40;;;;;;;26.22;52.08;98966.97;5017825;28;20055;-73
2023/08/08 07:08:25;;;;;;;0.45;0.45;;;;;;;26.24;51.71;98967.38;5037624;28;20143;-74
2023/08/08 07:10:51;;;;;;;0.40;0.40;;;;;;;26.40;51.20;98964.16;5037447;28;20047;-73
2023/08/08 07:13:17;;;;;;;0.30;0.30;;;;;;;26.04;51.99;98965.75;5047958;28;20045;-74
2023/08/08 07:15:44;;;;;;;0.30;0.30;;;;;;;25.42;53.04;98961.25;5026878;28;20044;-73
2023/08/08 07:18:10;;;;;;;0.30;0.30;;;;;;;25.04;54.59;98975.53;5061075;28;20434;-74
2023/08/08 07:20:36;;;;;;;0.30;0.30;;;;;;;24.87;54.89;98979.88;5047310;28;20094;-74
2023/08/08 07:23:03;;;;;;;0.30;0.30;;;;;;;24.68;55.25;98983.72;5055631;28;20314;-73
2023/08/08 07:25:31;;;;;;;0.35;0.35;;;;;;;24.60;55.36;98982.88;5045083;28;20080;-74
2023/08/08 07:27:57;;;;;;;0.30;0.30;;;;;;;24.48;55.35;98989.59;5030289;28;20053;-74
2023/08/08 07:30:25;;;;;;;0.30;0.30;;;;;;;24.33;55.57;98983.09;5052817;28;20106;-74
2023/08/08 07:32:51;;;;;;;0.30;0.30;;;;;;;24.14;56.45;98986.97;5060448;28;20040;-74
2023/08/08 07:35:18;;;;;;;0.20;0.20;;;;;;;24.01;57.45;98989.22;5065405;28;20105;-75
2023/08/08 07:37:44;;;;;;;0.20;0.20;;;;;;;23.98;57.28;98992.78;5044138;28;20047;-74
2023/08/08 07:40:14;;;;;;;0.30;0.30;;;;;;;23.81;57.25;98983.09;5053437;28;20072;-74
2023/08/08 07:42:42;;;;;;;0.30;0.30;;;;;;;23.78;57.25;98995.81;5043714;28;20308;-73
2023/08/08 07:45:09;;;;;;;0.30;0.30;;;;;;;23.69;58.52;98981.38;5056561;28;20049;-73
2023/08/08 07:47:35;;;;;;;0.30;0.30;;;;;;;23.83;58.11;98992.66;5053649;28;20075;-75
2023/08/08 07:50:02;;;;;;;0.35;0.35;;;;;;;23.98;57.46;98993.59;5057795;28;20160;-74
2023/08/08 07:52:29;;;;;;;0.30;0.30;;;;;;;24.08;57.55;98994.91;5044993;28;20040;-74
2023/08/08 07:54:55;;;;;;;0.30;0.30;;;;;;;24.18;57.33;98985.00;5049804;28;20052;-74
2023/08/08 07:57:21;;;;;;;0.30;0.30;;;;;;;24.11;57.00;98988.53;5058544;28;20068;-74
2023/08/08 07:59:49;;;;;;;0.30;0.30;;;;;;;24.21;56.94;98993.41;5049397;28;20120;-75
2023/08/08 08:02:15;;;;;;;0.30;0.30;;;;;;;24.37;56.14;98986.75;5047447;28;20044;-74
2023/08/08 08:04:42;;;;;;;0.30;0.30;;;;;;;24.46;56.22;98992.00;5049064;28;20066;-74
2023/08/08 08:07:08;;;;;;;0.40;0.40;;;;;;;24.44;55.84;98994.38;5061607;28;20090;-74
2023/08/08 08:09:34;;;;;;;0.30;0.30;;;;;;;24.39;56.18;98995.53;5046718;28;20075;-74
2023/08/08 08:12:00;;;;;;;0.22;0.22;;;;;;;24.44;56.16;99008.34;5052616;28;20321;-74
2023/08/08 08:14:27;;;;;;;0.20;0.20;;;;;;;24.24;56.52;98994.63;5052805;28;20045;-74
2023/08/08 08:16:55;;;;;;;0.30;0.30;;;;;;;24.26;57.07;98991.44;5049278;28;20310;-75
2023/08/08 08:19:21;;;;;;;0.30;0.30;;;;;;;24.18;57.06;98993.38;5059298;28;20500;-73
2023/08/08 08:21:47;;;;;;;0.30;0.30;;;;;;;24.14;57.13;98998.94;5058985;28;20068;-73
2023/08/08 08:24:13;;;;;;;0.30;0.30;;;;;;;24.11;59.66;99005.28;5060319;28;20048;-72
2023/08/08 08:26:40;;;;;;;0.30;0.30;;;;;;;23.76;63.89;99006.56;5037582;28;20121;-74
2023/08/08 08:29:06;;;;;;;0.30;0.30;;;;;;;23.30;69.51;99016.84;5057899;28;20459;-73
2023/08/08 08:31:32;;;;;;;0.30;0.30;;;;;;;22.90;70.90;99024.69;5060923;28;20071;-73
2023/08/08 08:34:00;;;;;;;0.30;0.30;;;;;;;22.81;71.97;99018.56;5061383;28;20201;-74
2023/08/08 08:36:26;;;;;;;0.30;0.30;;;;;;;22.93;72.91;99029.47;5057395;28;20059;-74
2023/08/08 08:38:52;;;;;;;0.30;0.30;;;;;;;23.11;71.83;99025.34;5057272;28;20045;-74
2023/08/08 08:41:25;;;;;;;0.30;0.30;;;;;;;23.21;74.28;99007.91;5040675;28;20049;-74
2023/08/08 08:43:51;;;;;;;0.30;0.30;;;;;;;23.30;76.49;99019.63;5052157;28;20400;-74
2023/08/08 08:46:22;;;;;;;0.35;0.35;;;;;;;23.56;75.09;99017.09;5025449;28;20040;-76
2023/08/08 08:48:49;;;;;;;0.40;0.40;;;;;;;24.36;70.96;99025.03;5061551;28;20107;-75
2023/08/08 08:51:18;;;;;;;0.50;0.50;;;;;;;25.24;65.53;99023.56;5036348;28;20049;-75
2023/08/08 08:53:46;;;;;;;0.50;0.50;;;;;;;26.22;61.80;99015.38;5012579;28;20049;-74
2023/08/08 08:56:14;;;;;;;0.50;0.50;;;;;;;27.37;57.21;99026.75;5013871;28;20102;-74
2023/08/08 08:58:42;;;;;;;0.40;0.40;;;;;;;28.47;52.44;99022.00;5017882;28;20049;-73
2023/08/08 09:01:11;;;;;;;0.40;0.40;;;;;;;28.45;51.70;99022.41;5028582;28;20040;-72
2023/08/08 09:03:40;;;;;;;0.60;0.60;;;;;;;28.15;51.09;99010.59;5015070;28;20140;-73
2023/08/08 09:06:06;;;;;;;0.60;0.60;;;;;;;28.27;49.84;99033.81;5009632;28;20063;-73
2023/08/08 09:08:35;;;;;;;0.50;0.50;;;;;;;28.43;48.97;99038.88;5013507;28;20045;-73
2023/08/08 09:11:01;;;;;;;0.50;0.50;;;;;;;28.93;48.81;99029.19;5055852;28;20072;-73
2023/08/08 09:13:36;;;;;;;0.40;0.40;;;;;;;29.09;47.93;99024.97;5038329;28;20135;-73
2023/08/08 09:16:05;;;;;;;0.43;0.43;;;;;;;29.10;47.55;99029.38;5046146;28;20045;-74
2023/08/08 09:18:33;;;;;;;0.43;0.43;;;;;;;29.00;48.27;99028.28;5012727;28;20068;-75
2023/08/08 09:21:00;;;;;;;0.50;0.50;;;;;;;28.83;47.87;99033.72;5012502;28;20060;-74
2023/08/08 09:23:27;;;;;;;0.60;0.60;;;;;;;29.06;48.11;99029.41;5066413;28;20060;-73
2023/08/08 09:25:56;;;;;;;0.43;0.43;;;;;;;29.55;46.33;99025.59;5047997;28;20550;-73
2023/08/08 09:28:23;;;;;;;0.60;0.60;;;;;;;29.80;46.25;99019.59;5065814;28;20068;-74
2023/08/08 09:30:49;;;;;;;;;;;;;;;30.40;44.21;99019.06;5050647;28;20041;-73
2023/08/08 09:33:17;;;;;;;0.60;0.60;;;;;;;30.95;42.99;99030.16;5023462;28;19924;-74
2023/08/08 09:35:47;;;;;;;0.60;0.60;;;;;;;31.76;41.85;99034.91;5058573;28;20469;-72
2023/08/08 09:38:15;;;;;;;0.70;0.70;;;;;;;32.35;40.25;99035.16;5045190;28;20052;-72
2023/08/08 09:40:42;;;;;;;0.60;0.60;;;;;;;32.81;39.40;99033.13;5031524;28;20037;-72
2023/08/08 09:43:11;;;;;;;0.52;0.52;;;;;;;32.92;39.09;99032.84;5043952;28;20585;-73
2023/08/08 09:45:38;;;;;;;0.50;0.50;;;;;;;32.35;40.18;99032.34;5045044;28;20559;-74
2023/08/08 09:48:06;;;;;;;0.50;0.50;;;;;;;31.86;41.10;99036.75;5041833;28;20071;-73
2023/08/08 09:50:34;;;;;;;0.60;0.60;;;;;;;31.40;41.71;99028.84;5050307;28;20470;-73
2023/08/08 09:53:02;;;;;;;0.50;0.50;;;;;;;31.09;43.10;99028.28;5030792;28;20072;-74
2023/08/08 09:55:30;;;;;;;0.50;0.50;;;;;;;30.81;43.10;99030.44;5036939;28;20045;-72
2023/08/08 09:57:58;;;;;;;0.50;0.50;;;;;;;30.53;43.57;99033.34;5045345;28;20044;-74
2023/08/08 10:00:27;;;;;;;0.50;0.50;;;;;;;30.24;44.30;99030.22;5044232;28;20080;-73
2023/08/08 10:02:55;;;;;;;0.40;0.40;;;;;;;30.07;44.73;99043.41;5061783;28;20542;-74
2023/08/08 10:05:21;;;;;;;0.40;0.40;;;;;;;29.89;44.46;99038.00;5060606;28;20110;-73
2023/08/08 10:07:48;;;;;;;0.40;0.40;;;;;;;29.71;44.98;99053.94;5054329;28;20527;-74
2023/08/08 10:10:18;;;;;;;0.40;0.40;;;;;;;29.44;44.96;99042.66;5062610;28;20044;-73
2023/08/08 10:12:46;;;;;;;0.50;0.50;;;;;;;29.01;45.85;99050.38;5058769;28;20063;-73
2023/08/08 10:15:14;;;;;;;0.50;0.50;;;;;;;28.80;46.98;99050.59;5047469;28;20072;-73
2023/08/08 10:17:42;;;;;;;0.50;0.50;;;;;;;28.86;46.66;99037.69;5055755;28;20106;-73
2023/08/08 10:20:17;;;;;;;0.50;0.50;;;;;;;29.05;46.46;99050.34;5066102;28;20044;-75
2023/08/08 10:22:46;;;;;;;0.50;0.50;;;;;;;29.09;46.18;99050.28;5031158;28;20048;-75
2023/08/08 10:25:18;;;;;;;0.50;0.50;;;;;;;29.35;45.78;99043.13;5044921;28;20124;-73
2023/08/08 10:27:45;;;;;;;0.50;0.50;;;;;;;29.29;45.55;99050.47;5042866;28;20056;-73
2023/08/08 10:30:13;;;;;;;0.50;0.50;;;;;;;29.23;45.55;99044.50;5052720;28;20068;-73
2023/08/08 10:32:44;;;;;;;0.50;0.50;;;;;;;29.24;45.54;99048.09;5039128;28;20049;-74
2023/08/08 10:35:11;;;;;;;0.52;0.52;;;;;;;29.37;45.03;99046.31;5053849;28;20063;-73
2023/08/08 10:37:38;;;;;;;0.50;0.50;;;;;;;29.63;44.66;99043.19;5032644;28;20049;-73
2023/08/08 10:40:07;;;;;;;0.60;0.60;;;;;;;29.73;44.53;99050.69;5059713;28;20048;-73
2023/08/08 10:42:42;;;;;;;0.50;0.50;;;;;;;30.08;43.92;99047.81;5048207;28;20605;-73
2023/08/08 10:45:12;;;;;;;0.57;0.57;;;;;;;30.32;43.69;99040.16;5042482;28;20072;-74
2023/08/08 10:47:38;;;;;;;0.50;0.50;;;;;;;30.48;43.27;99052.78;5024911;28;20056;-74
2023/08/08 10:50:09;;;;;;;0.50;0.50;;;;;;;30.33;43.77;99058.66;5026915;28;20332;-73
2023/08/08 10:52:52;;;;;;;0.50;0.50;;;;;;;30.22;43.74;99064.47;5047663;28;20055;-73
2023/08/08 10:55:20;;;;;;;0.50;0.50;;;;;;;29.94;43.69;99065.69;5049731;28;20068;-73
2023/08/08 10:57:54;;;;;;;0.30;0.30;;;;;;;29.45;44.55;99063.16;5033947;28;20060;-73
2023/08/08 11:00:25;;;;;;;0.40;0.40;;;;;;;28.98;45.75;99075.75;5062501;28;20044;-74
2023/08/08 11:02:54;;;;;;;0.40;0.40;;;;;;;28.67;46.77;99073.59;5032086;28;20133;-73
2023/08/08 11:05:21;;;;;;;0.30;0.30;;;;;;;28.30;47.85;99067.50;5064528;28;20099;-73
2023/08/08 11:07:48;;;;;;;0.35;0.35;;;;;;;28.00;48.04;99070.91;5063409;28;20166;-74
2023/08/08 11:10:15;;;;;;;0.40;0.40;;;;;;;27.85;48.33;99067.38;5062607;28;20052;-73
2023/08/08 11:12:55;;;;;;;0.30;0.30;;;;;;;27.88;48.20;99066.59;5032648;28;20036;-73
2023/08/08 11:15:21;;;;;;;;;;;;;;;27.73;48.79;99057.44;5013240;28;20060;-73
2023/08/08 11:17:48;;;;;;;0.30;0.30;;;;;;;27.73;48.80;99066.69;5051303;28;19928;-73
2023/08/08 11:20:14;;;;;;;0.40;0.40;;;;;;;27.71;49.58;99065.47;5052791;28;20079;-74
2023/08/08 11:22:42;;;;;;;0.30;0.30;;;;;;;27.67;49.49;99067.50;5051212;28;20090;-72
2023/08/08 11:25:08;;;;;;;0.30;0.30;;;;;;;27.44;50.19;99068.78;5042712;28;20149;-72
2023/08/08 11:27:35;;;;;;;0.30;0.30;;;;;;;27.15;50.89;99069.72;5043468;28;20055;-73
2023/08/08 11:30:01;;;;;;;0.30;0.30;;;;;;;26.88;51.71;99067.38;5042337;28;20133;-72
2023/08/08 11:32:29;;;;;;;0.30;0.30;;;;;;;26.70;52.41;99075.00;5058655;28;20048;-75
2023/08/08 11:34:55;;;;;;;0.30;0.30;;;;;;;26.56;53.00;99075.81;5053710;28;20041;-72
2023/08/08 11:37:23;;;;;;;0.30;0.30;;;;;;;26.42;53.83;99085.00;5043811;28;20621;-73